createdAt,value
2019-04-16T00:00:51.510Z,78.70
2019-04-16T00:03:23.201Z,79.20
2019-04-16T00:06:02.844Z,79.20
2019-04-16T00:08:41.897Z,79.40
2019-04-16T00:11:20.076Z,79.40
2019-04-16T00:13:50.147Z,79.20
2019-04-16T00:16:18.675Z,80.10
2019-04-16T00:18:57.141Z,79.20
2019-04-16T00:21:27.490Z,79.50
2019-04-16T00:24:19.654Z,80.10
2019-04-16T00:26:48.630Z,80.30
2019-04-16T00:29:17.087Z,80.20
2019-04-16T00:31:47.190Z,80.40
2019-04-16T00:34:17.039Z,80.80
2019-04-16T00:36:48.446Z,80.70
2019-04-16T00:39:15.736Z,80.60
2019-04-16T00:41:47.433Z,80.80
2019-04-16T00:44:15.879Z,80.70
2019-04-16T00:46:44.602Z,80.70
2019-04-16T00:49:13.059Z,80.70
2019-04-16T00:51:42.940Z,81.10
2019-04-16T00:54:11.537Z,80.80
2019-04-16T00:56:43.606Z,80.60
2019-04-16T00:59:10.272Z,80.60
2019-04-16T01:01:38.721Z,80.60
2019-04-16T01:04:07.176Z,80.70
2019-04-16T01:06:37.960Z,81.30
2019-04-16T01:09:06.921Z,80.60
2019-04-16T01:11:37.003Z,80.70
2019-04-16T01:14:05.559Z,81.10
2019-04-16T01:16:35.755Z,81.10
2019-04-16T01:19:09.503Z,81.20
2019-04-16T01:21:34.857Z,81.20
2019-04-16T01:24:03.571Z,81.20
2019-04-16T01:26:32.018Z,81.30
2019-04-16T01:29:10.781Z,81.50
2019-04-16T01:31:46.539Z,81.30
2019-04-16T01:34:34.539Z,81.30
2019-04-16T01:37:04.634Z,81.20
2019-04-16T01:39:37.359Z,82.20
2019-04-16T01:42:06.072Z,81.50
2019-04-16T01:44:36.536Z,82.00
2019-04-16T01:47:05.320Z,81.30
2019-04-16T01:49:33.869Z,81.40
2019-04-16T01:52:02.302Z,81.50
2019-04-16T01:54:30.750Z,81.50
2019-04-16T01:56:59.915Z,81.40
2019-04-16T01:59:29.213Z,81.40
2019-04-16T02:01:57.653Z,81.50
2019-04-16T02:04:26.111Z,81.40
2019-04-16T02:06:57.109Z,81.30
2019-04-16T02:09:24.779Z,81.50
2019-04-16T02:11:53.399Z,81.50
2019-04-16T02:14:22.352Z,81.60
2019-04-16T02:16:55.702Z,81.60
2019-04-16T02:19:21.203Z,81.50
2019-04-16T02:21:49.653Z,81.50
2019-04-16T02:24:18.777Z,81.50
2019-04-16T02:26:47.909Z,81.40
2019-04-16T02:29:18.009Z,81.50
2019-04-16T02:31:51.734Z,81.40
2019-04-16T02:34:21.194Z,81.20
2019-04-16T02:36:49.659Z,81.10
2019-04-16T02:39:18.128Z,81.10
2019-04-16T02:41:46.610Z,80.90
2019-04-16T02:44:17.055Z,80.90
2019-04-16T02:46:45.209Z,80.90
2019-04-16T02:49:15.903Z,81.10
2019-04-16T02:51:45.980Z,81.00
2019-04-16T02:54:33.901Z,80.90
2019-04-16T02:57:25.872Z,80.90
2019-04-16T02:59:53.405Z,80.70
2019-04-16T03:02:26.167Z,80.80
2019-04-16T03:04:59.115Z,80.80
2019-04-16T03:07:27.542Z,81.10
2019-04-16T03:10:01.731Z,80.60
2019-04-16T03:12:26.152Z,80.70
2019-04-16T03:14:54.597Z,80.80
2019-04-16T03:17:27.379Z,80.90
2019-04-16T03:20:04.466Z,81.00
2019-04-16T03:22:33.477Z,81.10
2019-04-16T03:25:05.441Z,81.00
2019-04-16T03:27:33.971Z,81.00
2019-04-16T03:30:03.495Z,80.70
2019-04-16T03:32:36.218Z,80.60
2019-04-16T03:35:05.859Z,80.60
2019-04-16T03:37:34.297Z,80.70
2019-04-16T03:40:15.126Z,80.80
2019-04-16T03:42:33.258Z,80.70
2019-04-16T03:45:01.743Z,80.70
2019-04-16T03:47:30.245Z,80.70
2019-04-16T03:49:59.345Z,80.80
2019-04-16T03:52:28.664Z,80.60
2019-04-16T03:54:57.098Z,80.70
2019-04-16T03:57:25.547Z,80.70
2019-04-16T03:59:53.989Z,80.70
2019-04-16T04:02:23.123Z,80.70
2019-04-16T04:04:51.642Z,81.00
2019-04-16T04:07:22.653Z,80.90
2019-04-16T04:09:51.529Z,81.00
2019-04-16T04:12:21.293Z,81.10
2019-04-16T04:14:51.308Z,81.20
2019-04-16T04:17:19.890Z,81.40
2019-04-16T04:19:48.329Z,81.40
2019-04-16T04:22:18.301Z,81.50
2019-04-16T04:24:48.287Z,81.40
2019-04-16T04:27:19.201Z,81.50
2019-04-16T04:29:46.901Z,81.50
2019-04-16T04:32:17.475Z,81.50
2019-04-16T04:34:48.769Z,81.60
2019-04-16T04:37:17.282Z,81.60
2019-04-16T04:39:45.711Z,81.50
2019-04-16T04:42:14.150Z,81.60
2019-04-16T04:44:42.655Z,81.60
2019-04-16T04:47:11.100Z,81.70
2019-04-16T04:49:39.617Z,81.60
2019-04-16T04:52:08.277Z,81.90
2019-04-16T04:54:36.952Z,82.00
2019-04-16T04:57:05.392Z,81.90
2019-04-16T04:59:36.508Z,82.00
2019-04-16T05:02:04.027Z,82.00
2019-04-16T05:04:34.163Z,82.00
2019-04-16T05:07:05.802Z,82.00
2019-04-16T05:09:36.539Z,82.10
2019-04-16T05:12:07.887Z,82.00
2019-04-16T05:14:34.936Z,81.80
2019-04-16T05:17:03.552Z,81.70
2019-04-16T05:19:33.523Z,81.80
2019-04-16T05:22:03.521Z,81.70
2019-04-16T05:24:31.963Z,81.50
2019-04-16T05:27:00.403Z,81.20
2019-04-16T05:29:28.844Z,81.20
2019-04-16T05:31:57.658Z,81.70
2019-04-16T05:34:26.802Z,80.70
2019-04-16T05:36:55.249Z,80.40
2019-04-16T05:39:28.764Z,79.40
2019-04-16T05:41:59.815Z,78.50
2019-04-16T05:44:33.060Z,76.60
2019-04-16T05:46:58.437Z,74.50
2019-04-16T05:49:29.522Z,73.50
2019-04-16T05:52:02.948Z,71.30
2019-04-16T05:54:29.781Z,69.50
2019-04-16T05:57:02.653Z,69.60
2019-04-16T05:59:33.719Z,69.30
2019-04-16T06:02:15.102Z,67.10
2019-04-16T06:04:41.892Z,66.20
2019-04-16T06:07:10.403Z,66.90
2019-04-16T06:09:44.444Z,66.20
2019-04-16T06:12:12.127Z,67.10
2019-04-16T06:14:42.194Z,65.50
2019-04-16T06:17:15.243Z,64.30
2019-04-16T06:19:47.861Z,63.80
2019-04-16T06:22:34.199Z,63.70
2019-04-16T06:25:20.537Z,62.80
2019-04-16T06:27:50.733Z,61.80
2019-04-16T06:30:34.087Z,61.30
2019-04-16T06:33:07.272Z,60.00
2019-04-16T06:35:43.940Z,59.80
2019-04-16T06:38:22.867Z,59.20
2019-04-16T06:40:55.770Z,59.00
2019-04-16T06:43:42.030Z,58.20
2019-04-16T06:46:14.742Z,57.60
2019-04-16T06:48:50.551Z,57.30
2019-04-16T06:51:23.465Z,58.00
2019-04-16T06:54:11.158Z,57.40
2019-04-16T06:56:50.509Z,56.20
2019-04-16T06:59:20.618Z,56.50
2019-04-16T07:02:03.024Z,57.40
2019-04-16T07:04:33.094Z,56.50
2019-04-16T07:07:21.710Z,54.50
2019-04-16T07:09:51.025Z,55.40
2019-04-16T07:12:21.366Z,55.20
2019-04-16T07:14:49.831Z,56.20
2019-04-16T07:17:18.890Z,55.40
2019-04-16T07:19:47.402Z,55.20
2019-04-16T07:22:20.838Z,55.30
2019-04-16T07:24:46.040Z,54.90
2019-04-16T07:27:19.570Z,56.10
2019-04-16T07:29:48.882Z,56.20
2019-04-16T07:32:28.757Z,55.00
2019-04-16T07:35:07.772Z,55.60
2019-04-16T07:37:57.463Z,55.90
2019-04-16T07:40:43.760Z,56.10
2019-04-16T07:43:30.944Z,57.10
2019-04-16T07:45:58.678Z,57.10
2019-04-16T07:48:32.856Z,56.60
2019-04-16T07:51:20.009Z,56.10
2019-04-16T07:53:53.014Z,56.00
2019-04-16T07:56:27.918Z,56.30
2019-04-16T07:59:00.167Z,56.40
2019-04-16T08:01:26.574Z,56.80
2019-04-16T08:03:56.893Z,56.70
2019-04-16T08:06:25.178Z,55.70
2019-04-16T08:08:53.998Z,54.30
2019-04-16T08:11:23.798Z,55.40
2019-04-16T08:13:52.234Z,54.70
2019-04-16T08:16:20.734Z,54.80
2019-04-16T08:18:50.163Z,55.40
2019-04-16T08:21:22.163Z,54.30
2019-04-16T08:23:52.848Z,54.90
2019-04-16T08:26:21.337Z,56.00
2019-04-16T08:28:49.787Z,56.00
2019-04-16T08:31:20.031Z,54.20
2019-04-16T08:33:50.091Z,55.00
2019-04-16T08:36:20.534Z,55.20
2019-04-16T08:38:50.225Z,54.20
2019-04-16T08:41:21.095Z,55.00
2019-04-16T08:43:51.432Z,55.90
2019-04-16T08:46:22.463Z,55.20
2019-04-16T08:48:54.107Z,55.40
2019-04-16T08:51:30.296Z,55.10
2019-04-16T08:53:51.260Z,54.90
2019-04-16T08:56:21.246Z,53.20
2019-04-16T08:58:49.755Z,53.90
2019-04-16T09:01:23.337Z,51.80
2019-04-16T09:03:50.009Z,53.00
2019-04-16T09:06:18.459Z,53.50
2019-04-16T09:08:52.578Z,53.50
2019-04-16T09:11:23.463Z,53.90
2019-04-16T09:14:03.281Z,52.70
2019-04-16T09:16:33.374Z,52.80
2019-04-16T09:19:06.133Z,50.80
2019-04-16T09:21:34.578Z,52.60
2019-04-16T09:24:22.700Z,50.90
2019-04-16T09:26:58.882Z,51.00
2019-04-16T09:29:29.207Z,51.30
2019-04-16T09:32:03.351Z,51.00
2019-04-16T09:34:35.621Z,51.00
2019-04-16T09:37:14.233Z,51.60
2019-04-16T09:39:56.195Z,51.20
2019-04-16T09:42:24.724Z,50.60
2019-04-16T09:44:53.171Z,49.10
2019-04-16T09:47:21.637Z,50.10
2019-04-16T09:49:50.126Z,48.70
2019-04-16T09:52:22.946Z,49.80
2019-04-16T09:54:50.373Z,48.50
2019-04-16T09:57:18.850Z,48.60
2019-04-16T09:59:49.481Z,49.10
2019-04-16T10:02:27.219Z,48.50
2019-04-16T10:04:56.631Z,48.70
2019-04-16T10:07:25.080Z,47.20
2019-04-16T10:09:54.531Z,47.30
2019-04-16T10:12:25.283Z,47.00
2019-04-16T10:14:54.825Z,44.20
2019-04-16T10:17:23.400Z,44.90
2019-04-16T10:19:51.872Z,44.90
2019-04-16T10:22:20.395Z,46.10
2019-04-16T10:25:02.824Z,46.30
2019-04-16T10:27:41.627Z,45.10
2019-04-16T10:30:17.962Z,46.00
2019-04-16T10:32:47.023Z,44.20
2019-04-16T10:35:15.454Z,43.70
2019-04-16T10:37:43.937Z,45.10
2019-04-16T10:40:23.055Z,45.60
2019-04-16T10:43:11.142Z,45.00
2019-04-16T10:45:44.054Z,43.60
2019-04-16T10:48:14.190Z,41.90
2019-04-16T10:50:44.413Z,42.00
2019-04-16T10:53:14.595Z,42.00
2019-04-16T10:56:02.723Z,43.40
2019-04-16T10:58:51.496Z,43.50
2019-04-16T11:01:30.328Z,42.80
2019-04-16T11:04:15.222Z,40.70
2019-04-16T11:06:48.349Z,41.30
2019-04-16T11:09:16.876Z,41.70
2019-04-16T11:11:45.395Z,42.80
2019-04-16T11:14:13.888Z,40.00
2019-04-16T11:16:44.005Z,41.70
2019-04-16T11:19:12.569Z,42.10
2019-04-16T11:21:41.098Z,42.00
2019-04-16T11:24:09.661Z,40.90
2019-04-16T11:26:38.131Z,40.30
2019-04-16T11:29:06.587Z,40.70
2019-04-16T11:31:35.049Z,40.40
2019-04-16T11:34:05.179Z,41.10
2019-04-16T11:36:33.913Z,40.90
2019-04-16T11:39:02.412Z,40.50
2019-04-16T11:41:30.845Z,40.30
2019-04-16T11:44:13.520Z,38.60
2019-04-16T11:46:29.467Z,39.60
2019-04-16T11:48:57.904Z,38.90
2019-04-16T11:51:26.362Z,38.90
2019-04-16T11:53:54.793Z,39.10
2019-04-16T11:56:23.262Z,40.90
2019-04-16T11:58:51.749Z,39.80
2019-04-16T12:01:24.363Z,39.20
2019-04-16T12:03:56.299Z,38.30
2019-04-16T12:06:41.285Z,39.70
2019-04-16T12:09:20.684Z,39.00
2019-04-16T12:11:50.876Z,39.70
2019-04-16T12:14:29.897Z,39.50
2019-04-16T12:16:52.833Z,39.30
2019-04-16T12:19:37.798Z,40.10
2019-04-16T12:25:06.254Z,40.40
2019-04-16T12:27:36.991Z,35.70
2019-04-16T12:30:25.334Z,34.60
2019-04-16T12:33:14.032Z,35.10
2019-04-16T12:35:52.272Z,35.40
2019-04-16T12:41:14.071Z,34.80
2019-04-16T12:43:52.885Z,35.20
2019-04-16T12:46:38.236Z,36.30
2019-04-16T12:49:10.932Z,34.80
2019-04-16T12:51:44.607Z,35.30
2019-04-16T12:54:32.653Z,34.60
2019-04-16T12:57:02.835Z,35.20
2019-04-16T12:59:35.700Z,35.80
2019-04-16T13:02:17.751Z,36.60
2019-04-16T13:05:05.702Z,36.50
2019-04-16T13:07:54.180Z,36.70
2019-04-16T13:10:28.922Z,35.00
2019-04-16T13:13:15.196Z,34.80
2019-04-16T13:15:51.062Z,35.60
2019-04-16T13:18:21.503Z,36.10
2019-04-16T13:21:05.600Z,35.50
2019-04-16T13:23:38.352Z,34.90
2019-04-16T13:26:23.586Z,35.00
2019-04-16T13:28:55.238Z,35.00
2019-04-16T13:31:22.192Z,35.40
2019-04-16T13:33:51.026Z,34.40
2019-04-16T13:36:19.613Z,35.70
2019-04-16T13:39:09.482Z,35.20
2019-04-16T13:41:39.594Z,35.20
2019-04-16T13:44:12.270Z,34.40
2019-04-16T13:46:40.710Z,35.40
2019-04-16T13:49:16.690Z,37.70
2019-04-16T13:51:47.828Z,35.40
2019-04-16T13:54:19.496Z,35.70
2019-04-16T13:56:55.235Z,35.70
2019-04-16T13:59:31.025Z,35.50
2019-04-16T14:02:03.015Z,35.40
2019-04-16T14:04:31.915Z,35.90
2019-04-16T14:07:00.598Z,37.60
2019-04-16T14:09:29.047Z,36.10
2019-04-16T14:11:57.498Z,36.00
2019-04-16T14:14:26.010Z,35.60
2019-04-16T14:16:56.495Z,37.90
2019-04-16T14:19:24.942Z,38.50
2019-04-16T14:21:53.472Z,37.90
2019-04-16T14:24:24.112Z,36.30
2019-04-16T14:26:55.394Z,36.10
2019-04-16T14:29:25.054Z,34.30
2019-04-16T14:31:53.894Z,34.70
2019-04-16T14:34:24.038Z,36.30
2019-04-16T14:36:53.282Z,35.70
2019-04-16T14:39:26.864Z,35.10
2019-04-16T14:41:56.944Z,36.60
2019-04-16T14:44:27.035Z,37.00
2019-04-16T14:47:00.018Z,36.60
2019-04-16T14:49:25.653Z,37.10
2019-04-16T14:52:01.813Z,35.30
2019-04-16T14:54:31.073Z,37.10
2019-04-16T14:57:04.055Z,35.90
2019-04-16T14:59:36.815Z,37.00
2019-04-16T15:02:16.348Z,37.00
2019-04-16T15:05:04.396Z,36.70
2019-04-16T15:07:34.495Z,37.60
2019-04-16T15:10:22.553Z,37.00
2019-04-16T15:12:52.636Z,36.50
2019-04-16T15:15:22.723Z,38.20
2019-04-16T15:17:52.810Z,37.50
2019-04-16T15:20:25.762Z,36.90
2019-04-16T15:23:07.908Z,37.00
2019-04-16T15:25:56.002Z,38.30
2019-04-16T15:28:43.740Z,36.60
2019-04-16T15:31:13.818Z,36.20
2019-04-16T15:33:49.611Z,35.40
2019-04-16T15:36:19.892Z,37.70
2019-04-16T15:38:59.079Z,36.30
2019-04-16T15:41:27.835Z,35.70
2019-04-16T15:44:14.438Z,36.70
2019-04-16T15:46:53.032Z,35.70
2019-04-16T15:49:30.536Z,34.90
2019-04-16T15:52:00.661Z,35.40
2019-04-16T15:54:46.934Z,36.90
2019-04-16T15:57:36.062Z,37.40
2019-04-16T16:00:11.245Z,37.20
2019-04-16T16:02:57.584Z,35.70
2019-04-16T16:05:30.082Z,35.40
2019-04-16T16:08:04.498Z,36.60
2019-04-16T16:10:37.342Z,36.90
2019-04-16T16:13:05.904Z,36.20
2019-04-16T16:15:43.516Z,36.00
2019-04-16T16:18:13.495Z,35.90
2019-04-16T16:20:41.948Z,36.10
2019-04-16T16:23:11.689Z,36.30
2019-04-16T16:25:41.352Z,35.70
2019-04-16T16:28:10.531Z,35.60
2019-04-16T16:30:38.979Z,36.80
2019-04-16T16:33:07.786Z,36.70
2019-04-16T16:35:36.232Z,37.60
2019-04-16T16:38:04.754Z,36.20
2019-04-16T16:40:33.207Z,36.40
2019-04-16T16:43:06.463Z,36.10
2019-04-16T16:45:49.671Z,36.20
2019-04-16T16:48:21.874Z,36.50
2019-04-16T16:50:51.481Z,37.80
2019-04-16T16:53:32.463Z,36.40
2019-04-16T16:56:08.157Z,36.40
2019-04-16T16:58:50.088Z,36.70
2019-04-16T17:01:33.639Z,37.00
2019-04-16T17:04:01.324Z,37.60
2019-04-16T17:06:31.029Z,37.30
2019-04-16T17:09:01.038Z,37.40
2019-04-16T17:11:29.511Z,37.60
2019-04-16T17:14:01.335Z,38.30
2019-04-16T17:16:29.056Z,38.00
2019-04-16T17:18:57.496Z,38.80
2019-04-16T17:21:27.392Z,39.10
2019-04-16T17:23:58.867Z,39.40
2019-04-16T17:26:27.304Z,39.90
2019-04-16T17:28:55.784Z,40.50
2019-04-16T17:31:24.263Z,41.20
2019-04-16T17:33:52.736Z,41.20
2019-04-16T17:36:21.266Z,41.30
2019-04-16T17:38:49.815Z,41.40
2019-04-16T17:41:21.444Z,41.70
2019-04-16T17:44:03.075Z,41.40
2019-04-16T17:46:50.108Z,41.40
2019-04-16T17:49:20.261Z,41.70
2019-04-16T17:51:53.106Z,41.90
2019-04-16T17:54:35.243Z,42.30
2019-04-16T17:57:23.232Z,42.40
2019-04-16T18:00:09.672Z,42.60
2019-04-16T18:02:51.470Z,42.80
2019-04-16T18:05:23.388Z,43.00
2019-04-16T18:08:11.352Z,42.90
2019-04-16T18:10:53.308Z,42.90
2019-04-16T18:13:31.915Z,43.00
2019-04-16T18:16:00.971Z,43.60
2019-04-16T18:18:31.111Z,44.00
2019-04-16T18:21:09.983Z,44.60
2019-04-16T18:23:40.065Z,44.90
2019-04-16T18:26:29.112Z,45.20
2019-04-16T18:29:05.687Z,45.70
2019-04-16T18:31:41.556Z,45.90
2019-04-16T18:34:27.951Z,46.20
2019-04-16T18:37:14.427Z,46.50
2019-04-16T18:39:53.440Z,47.00
2019-04-16T18:42:32.469Z,47.30
2019-04-16T18:45:18.855Z,47.70
2019-04-16T18:48:01.396Z,47.90
2019-04-16T18:50:23.540Z,48.30
2019-04-16T18:52:50.943Z,49.20
2019-04-16T18:55:19.459Z,48.80
2019-04-16T18:57:47.897Z,49.30
2019-04-16T19:00:33.356Z,49.60
2019-04-16T19:03:01.014Z,49.90
2019-04-16T19:05:29.481Z,50.40
2019-04-16T19:08:00.207Z,50.50
2019-04-16T19:10:28.179Z,50.70
2019-04-16T19:12:57.244Z,51.00
2019-04-16T19:15:25.971Z,51.40
2019-04-16T19:17:56.172Z,51.70
2019-04-16T19:20:26.245Z,51.90
2019-04-16T19:22:54.707Z,52.40
2019-04-16T19:25:23.133Z,52.60
2019-04-16T19:27:51.592Z,52.90
2019-04-16T19:30:22.678Z,53.10
2019-04-16T19:32:50.212Z,53.30
2019-04-16T19:35:22.307Z,53.60
2019-04-16T19:37:48.843Z,54.00
2019-04-16T19:40:18.853Z,54.00
2019-04-16T19:42:47.563Z,54.30
2019-04-16T19:45:18.323Z,54.40
2019-04-16T19:47:46.244Z,54.40
2019-04-16T19:50:14.685Z,54.70
2019-04-16T19:52:45.654Z,55.00
2019-04-16T19:55:13.984Z,54.90
2019-04-16T19:57:42.489Z,55.20
2019-04-16T20:00:11.007Z,55.20
2019-04-16T20:02:39.464Z,55.40
2019-04-16T20:05:08.047Z,55.50
2019-04-16T20:07:36.494Z,55.60
2019-04-16T20:10:06.743Z,55.90
2019-04-16T20:12:35.212Z,55.80
2019-04-16T20:15:07.967Z,56.00
2019-04-16T20:17:34.026Z,56.30
2019-04-16T20:20:04.148Z,56.40
2019-04-16T20:22:32.670Z,56.50
2019-04-16T20:25:01.246Z,56.60
2019-04-16T20:27:29.737Z,56.70
2019-04-16T20:29:58.195Z,56.90
2019-04-16T20:32:30.874Z,56.90
2019-04-16T20:34:59.300Z,57.00
2019-04-16T20:37:27.827Z,57.00
2019-04-16T20:39:56.275Z,57.10
2019-04-16T20:42:31.963Z,57.10
2019-04-16T20:45:00.816Z,57.30
2019-04-16T20:47:29.382Z,57.30
2019-04-16T20:49:57.834Z,57.50
2019-04-16T20:52:26.287Z,57.50
2019-04-16T20:54:54.742Z,57.70
2019-04-16T20:57:25.785Z,57.70
2019-04-16T20:59:56.608Z,57.80
2019-04-16T21:02:26.319Z,57.90
2019-04-16T21:04:58.201Z,58.00
2019-04-16T21:07:24.942Z,58.20
2019-04-16T21:09:53.388Z,58.30
2019-04-16T21:12:21.835Z,58.40
2019-04-16T21:14:50.898Z,58.40
2019-04-16T21:17:20.475Z,58.50
2019-04-16T21:19:48.921Z,58.50
2019-04-16T21:22:20.055Z,58.60
2019-04-16T21:24:48.548Z,58.80
2019-04-16T21:27:17.074Z,58.80
2019-04-16T21:29:45.986Z,58.80
2019-04-16T21:32:24.933Z,58.90
2019-04-16T21:34:59.597Z,59.10
2019-04-16T21:37:47.383Z,59.10
2019-04-16T21:40:23.147Z,59.30
2019-04-16T21:42:48.605Z,59.40
2019-04-16T21:45:17.139Z,59.50
2019-04-16T21:47:45.674Z,59.70
2019-04-16T21:50:16.423Z,59.80
2019-04-16T21:52:44.298Z,59.70
2019-04-16T21:55:12.910Z,59.80
2019-04-16T21:57:42.889Z,59.90
2019-04-16T22:00:27.880Z,60.20
2019-04-16T22:02:57.082Z,60.50
2019-04-16T22:05:25.502Z,60.40
2019-04-16T22:07:57.040Z,60.50
2019-04-16T22:10:24.124Z,60.80
2019-04-16T22:12:53.918Z,60.70
2019-04-16T22:15:25.155Z,60.70
2019-04-16T22:17:52.559Z,60.60
2019-04-16T22:20:21.048Z,60.60
2019-04-16T22:22:49.503Z,60.40
2019-04-16T22:25:20.584Z,60.10
2019-04-16T22:27:50.557Z,60.00
2019-04-16T22:30:19.414Z,59.80
2019-04-16T22:32:48.666Z,59.80
2019-04-16T22:35:17.115Z,59.60
2019-04-16T22:37:47.370Z,59.30
2019-04-16T22:40:32.456Z,59.30
2019-04-16T22:43:18.107Z,59.50
2019-04-16T22:45:52.249Z,59.30
2019-04-16T22:48:18.608Z,59.30
2019-04-16T22:50:48.153Z,59.20
2019-04-16T22:53:17.217Z,59.20
2019-04-16T22:55:46.405Z,59.10
2019-04-16T22:58:24.312Z,58.80
2019-04-16T23:00:54.753Z,58.80
2019-04-16T23:03:23.209Z,58.80
2019-04-16T23:05:51.638Z,58.70
2019-04-16T23:08:20.105Z,58.50
2019-04-16T23:10:50.745Z,58.40
2019-04-16T23:13:18.734Z,58.30
2019-04-16T23:15:47.192Z,58.20
2019-04-16T23:18:17.623Z,58.30
2019-04-16T23:20:47.256Z,58.10
2019-04-16T23:23:18.481Z,58.10
2019-04-16T23:25:45.947Z,58.10
2019-04-16T23:28:14.393Z,58.10
2019-04-16T23:30:47.912Z,58.10
2019-04-16T23:33:15.880Z,58.10
2019-04-16T23:35:44.670Z,58.10
2019-04-16T23:38:13.231Z,58.00
2019-04-16T23:40:43.930Z,58.10
2019-04-16T23:43:13.475Z,58.10
2019-04-16T23:45:49.183Z,58.10
2019-04-16T23:48:28.672Z,58.10
2019-04-16T23:51:14.915Z,58.10
2019-04-16T23:53:47.673Z,58.00
2019-04-16T23:56:26.580Z,58.00
2019-04-16T23:59:01.351Z,58.00
